sensor_id;sensor_type;location;lat;lon;timestamp;P1;durP1;ratioP1;P2;durP2;ratioP2
4686;SDS011;2357;47.316;-1.348;2022-09-09T00:03:42;8.57;;;1.93;;
4686;SDS011;2357;47.316;-1.348;2022-09-09T00:06:21;18.83;;;2.97;;
4686;SDS011;2357;47.316;-1.348;2022-09-09T00:11:39;23.30;;;2.13;;
4686;SDS011;2357;47.316;-1.348;2022-09-09T00:14:59;8.40;;;1.80;;
4686;SDS011;2357;47.316;-1.348;2022-09-09T00:20:14;14.90;;;2.03;;
4686;SDS011;2357;47.316;-1.348;2022-09-09T00:22:45;19.43;;;2.07;;
4686;SDS011;2357;47.316;-1.348;2022-09-09T00:25:16;14.93;;;2.70;;
4686;SDS011;2357;47.316;-1.348;2022-09-09T00:27:48;12.23;;;2.17;;
4686;SDS011;2357;47.316;-1.348;2022-09-09T00:30:25;24.13;;;3.30;;
4686;SDS011;2357;47.316;-1.348;2022-09-09T00:33:00;14.07;;;3.20;;
4686;SDS011;2357;47.316;-1.348;2022-09-09T00:38:01;17.27;;;2.47;;
4686;SDS011;2357;47.316;-1.348;2022-09-09T00:40:37;16.30;;;2.33;;
4686;SDS011;2357;47.316;-1.348;2022-09-09T00:45:52;30.90;;;2.80;;
4686;SDS011;2357;47.316;-1.348;2022-09-09T00:51:32;14.33;;;2.33;;
4686;SDS011;2357;47.316;-1.348;2022-09-09T01:01:52;22.02;;;3.22;;
4686;SDS011;2357;47.316;-1.348;2022-09-09T01:04:22;12.20;;;3.40;;
4686;SDS011;2357;47.316;-1.348;2022-09-09T01:06:57;18.90;;;2.40;;
4686;SDS011;2357;47.316;-1.348;2022-09-09T01:09:32;14.10;;;3.00;;
4686;SDS011;2357;47.316;-1.348;2022-09-09T01:12:17;14.40;;;2.23;;
4686;SDS011;2357;47.316;-1.348;2022-09-09T01:14:56;9.13;;;1.80;;
4686;SDS011;2357;47.316;-1.348;2022-09-09T01:17:30;17.97;;;2.60;;
4686;SDS011;2357;47.316;-1.348;2022-09-09T01:22:40;15.43;;;1.90;;
4686;SDS011;2357;47.316;-1.348;2022-09-09T01:28:05;16.17;;;2.63;;
4686;SDS011;2357;47.316;-1.348;2022-09-09T01:30:37;9.97;;;2.80;;
4686;SDS011;2357;47.316;-1.348;2022-09-09T01:33:05;18.73;;;2.27;;
4686;SDS011;2357;47.316;-1.348;2022-09-09T01:38:19;15.40;;;2.30;;
4686;SDS011;2357;47.316;-1.348;2022-09-09T01:40:46;10.93;;;1.57;;
4686;SDS011;2357;47.316;-1.348;2022-09-09T01:43:12;16.63;;;2.27;;
4686;SDS011;2357;47.316;-1.348;2022-09-09T01:45:39;15.53;;;2.90;;
4686;SDS011;2357;47.316;-1.348;2022-09-09T01:48:07;12.37;;;1.77;;
4686;SDS011;2357;47.316;-1.348;2022-09-09T01:50:33;21.17;;;4.47;;
4686;SDS011;2357;47.316;-1.348;2022-09-09T01:52:59;18.43;;;1.97;;
4686;SDS011;2357;47.316;-1.348;2022-09-09T02:01:36;23.17;;;3.10;;
4686;SDS011;2357;47.316;-1.348;2022-09-09T02:04:32;12.53;;;3.07;;
4686;SDS011;2357;47.316;-1.348;2022-09-09T02:07:00;18.97;;;2.43;;
4686;SDS011;2357;47.316;-1.348;2022-09-09T02:09:26;8.07;;;1.77;;
4686;SDS011;2357;47.316;-1.348;2022-09-09T02:12:00;18.63;;;1.80;;
4686;SDS011;2357;47.316;-1.348;2022-09-09T02:14:34;11.33;;;2.50;;
4686;SDS011;2357;47.316;-1.348;2022-09-09T02:17:09;6.53;;;1.83;;
4686;SDS011;2357;47.316;-1.348;2022-09-09T02:19:40;13.20;;;1.63;;
4686;SDS011;2357;47.316;-1.348;2022-09-09T02:22:13;19.13;;;3.77;;
4686;SDS011;2357;47.316;-1.348;2022-09-09T02:24:42;11.87;;;1.80;;
4686;SDS011;2357;47.316;-1.348;2022-09-09T02:27:11;12.23;;;2.10;;
4686;SDS011;2357;47.316;-1.348;2022-09-09T02:29:40;7.17;;;1.90;;
4686;SDS011;2357;47.316;-1.348;2022-09-09T02:32:09;9.00;;;1.90;;
4686;SDS011;2357;47.316;-1.348;2022-09-09T02:34:40;13.20;;;2.87;;
4686;SDS011;2357;47.316;-1.348;2022-09-09T02:37:10;10.27;;;1.60;;
4686;SDS011;2357;47.316;-1.348;2022-09-09T02:39:37;11.80;;;2.40;;
4686;SDS011;2357;47.316;-1.348;2022-09-09T02:42:05;13.90;;;3.00;;
4686;SDS011;2357;47.316;-1.348;2022-09-09T02:44:33;12.30;;;2.07;;
4686;SDS011;2357;47.316;-1.348;2022-09-09T02:49:28;10.00;;;2.03;;
4686;SDS011;2357;47.316;-1.348;2022-09-09T02:52:01;10.23;;;1.67;;
4686;SDS011;2357;47.316;-1.348;2022-09-09T02:54:35;11.83;;;1.90;;
4686;SDS011;2357;47.316;-1.348;2022-09-09T02:57:25;20.10;;;3.57;;
4686;SDS011;2357;47.316;-1.348;2022-09-09T02:59:56;29.33;;;2.47;;
4686;SDS011;2357;47.316;-1.348;2022-09-09T03:02:22;22.27;;;2.07;;
4686;SDS011;2357;47.316;-1.348;2022-09-09T03:04:50;13.00;;;2.23;;
4686;SDS011;2357;47.316;-1.348;2022-09-09T03:07:17;17.63;;;2.90;;
4686;SDS011;2357;47.316;-1.348;2022-09-09T03:09:43;6.77;;;1.43;;
4686;SDS011;2357;47.316;-1.348;2022-09-09T03:12:09;9.73;;;2.20;;
4686;SDS011;2357;47.316;-1.348;2022-09-09T03:14:36;22.30;;;3.20;;
4686;SDS011;2357;47.316;-1.348;2022-09-09T03:17:03;12.77;;;3.77;;
4686;SDS011;2357;47.316;-1.348;2022-09-09T03:19:29;14.70;;;3.40;;
4686;SDS011;2357;47.316;-1.348;2022-09-09T03:21:56;14.17;;;2.17;;
4686;SDS011;2357;47.316;-1.348;2022-09-09T03:24:23;16.23;;;2.20;;
4686;SDS011;2357;47.316;-1.348;2022-09-09T03:26:49;17.80;;;2.27;;
4686;SDS011;2357;47.316;-1.348;2022-09-09T03:29:15;9.17;;;2.20;;
4686;SDS011;2357;47.316;-1.348;2022-09-09T03:31:42;7.60;;;2.50;;
4686;SDS011;2357;47.316;-1.348;2022-09-09T03:34:08;11.20;;;2.00;;
4686;SDS011;2357;47.316;-1.348;2022-09-09T03:36:33;7.67;;;1.63;;
4686;SDS011;2357;47.316;-1.348;2022-09-09T03:38:59;30.37;;;3.40;;
4686;SDS011;2357;47.316;-1.348;2022-09-09T03:41:26;17.80;;;2.23;;
4686;SDS011;2357;47.316;-1.348;2022-09-09T03:43:52;17.97;;;3.60;;
4686;SDS011;2357;47.316;-1.348;2022-09-09T03:46:23;16.00;;;2.03;;
4686;SDS011;2357;47.316;-1.348;2022-09-09T03:48:50;10.70;;;2.80;;
4686;SDS011;2357;47.316;-1.348;2022-09-09T03:51:17;7.03;;;1.80;;
4686;SDS011;2357;47.316;-1.348;2022-09-09T03:53:43;13.43;;;2.33;;
4686;SDS011;2357;47.316;-1.348;2022-09-09T03:56:09;17.13;;;2.93;;
4686;SDS011;2357;47.316;-1.348;2022-09-09T03:58:35;12.43;;;1.57;;
4686;SDS011;2357;47.316;-1.348;2022-09-09T04:03:33;10.30;;;2.50;;
4686;SDS011;2357;47.316;-1.348;2022-09-09T04:06:00;10.57;;;2.00;;
4686;SDS011;2357;47.316;-1.348;2022-09-09T04:08:28;9.23;;;1.70;;
4686;SDS011;2357;47.316;-1.348;2022-09-09T04:10:56;11.33;;;2.40;;
4686;SDS011;2357;47.316;-1.348;2022-09-09T04:13:23;7.57;;;2.07;;
4686;SDS011;2357;47.316;-1.348;2022-09-09T04:15:53;5.90;;;1.57;;
4686;SDS011;2357;47.316;-1.348;2022-09-09T04:18:20;10.73;;;1.63;;
4686;SDS011;2357;47.316;-1.348;2022-09-09T04:20:47;6.73;;;1.77;;
4686;SDS011;2357;47.316;-1.348;2022-09-09T04:23:14;11.27;;;2.30;;
4686;SDS011;2357;47.316;-1.348;2022-09-09T04:25:49;4.47;;;1.47;;
4686;SDS011;2357;47.316;-1.348;2022-09-09T04:28:20;5.00;;;1.30;;
4686;SDS011;2357;47.316;-1.348;2022-09-09T04:30:48;3.13;;;0.70;;
4686;SDS011;2357;47.316;-1.348;2022-09-09T04:33:14;3.37;;;1.10;;
4686;SDS011;2357;47.316;-1.348;2022-09-09T04:35:49;5.17;;;1.43;;
4686;SDS011;2357;47.316;-1.348;2022-09-09T04:38:16;3.60;;;0.80;;
4686;SDS011;2357;47.316;-1.348;2022-09-09T04:40:46;5.27;;;0.77;;
4686;SDS011;2357;47.316;-1.348;2022-09-09T04:43:12;3.10;;;0.70;;
4686;SDS011;2357;47.316;-1.348;2022-09-09T04:45:39;5.87;;;0.90;;
4686;SDS011;2357;47.316;-1.348;2022-09-09T04:48:06;5.17;;;2.07;;
4686;SDS011;2357;47.316;-1.348;2022-09-09T04:50:32;5.10;;;0.90;;
4686;SDS011;2357;47.316;-1.348;2022-09-09T04:53:01;4.03;;;1.00;;
4686;SDS011;2357;47.316;-1.348;2022-09-09T04:55:28;1.40;;;0.93;;
4686;SDS011;2357;47.316;-1.348;2022-09-09T04:57:54;6.87;;;1.13;;
4686;SDS011;2357;47.316;-1.348;2022-09-09T05:00:19;12.37;;;1.03;;
4686;SDS011;2357;47.316;-1.348;2022-09-09T05:02:45;5.23;;;0.90;;
4686;SDS011;2357;47.316;-1.348;2022-09-09T05:05:12;5.23;;;1.13;;
4686;SDS011;2357;47.316;-1.348;2022-09-09T05:07:37;4.00;;;0.93;;
4686;SDS011;2357;47.316;-1.348;2022-09-09T05:10:03;7.23;;;1.90;;
4686;SDS011;2357;47.316;-1.348;2022-09-09T05:12:30;2.13;;;0.83;;
4686;SDS011;2357;47.316;-1.348;2022-09-09T05:14:56;7.23;;;1.50;;
4686;SDS011;2357;47.316;-1.348;2022-09-09T05:17:22;4.97;;;0.90;;
4686;SDS011;2357;47.316;-1.348;2022-09-09T05:19:48;4.73;;;1.17;;
4686;SDS011;2357;47.316;-1.348;2022-09-09T05:22:17;6.40;;;1.30;;
4686;SDS011;2357;47.316;-1.348;2022-09-09T05:24:45;14.77;;;1.83;;
4686;SDS011;2357;47.316;-1.348;2022-09-09T05:27:11;7.33;;;1.67;;
4686;SDS011;2357;47.316;-1.348;2022-09-09T05:29:37;6.33;;;1.10;;
4686;SDS011;2357;47.316;-1.348;2022-09-09T05:32:03;3.97;;;1.50;;
4686;SDS011;2357;47.316;-1.348;2022-09-09T05:34:29;7.60;;;1.47;;
4686;SDS011;2357;47.316;-1.348;2022-09-09T05:36:55;9.53;;;1.23;;
4686;SDS011;2357;47.316;-1.348;2022-09-09T05:39:21;8.93;;;1.10;;
4686;SDS011;2357;47.316;-1.348;2022-09-09T05:41:46;2.93;;;1.50;;
4686;SDS011;2357;47.316;-1.348;2022-09-09T05:44:12;8.93;;;1.43;;
4686;SDS011;2357;47.316;-1.348;2022-09-09T05:46:38;5.13;;;1.57;;
4686;SDS011;2357;47.316;-1.348;2022-09-09T05:49:04;3.80;;;1.03;;
4686;SDS011;2357;47.316;-1.348;2022-09-09T05:51:31;6.47;;;1.53;;
4686;SDS011;2357;47.316;-1.348;2022-09-09T05:53:57;3.80;;;0.80;;
4686;SDS011;2357;47.316;-1.348;2022-09-09T05:56:26;6.40;;;1.53;;
4686;SDS011;2357;47.316;-1.348;2022-09-09T05:58:53;11.57;;;1.00;;
4686;SDS011;2357;47.316;-1.348;2022-09-09T06:01:20;11.03;;;1.27;;
4686;SDS011;2357;47.316;-1.348;2022-09-09T06:03:47;8.33;;;1.80;;
4686;SDS011;2357;47.316;-1.348;2022-09-09T06:06:15;1.90;;;0.90;;
4686;SDS011;2357;47.316;-1.348;2022-09-09T06:08:43;4.33;;;1.23;;
4686;SDS011;2357;47.316;-1.348;2022-09-09T06:13:38;4.67;;;1.47;;
4686;SDS011;2357;47.316;-1.348;2022-09-09T06:16:11;2.30;;;1.00;;
4686;SDS011;2357;47.316;-1.348;2022-09-09T06:18:39;5.68;;;1.40;;
4686;SDS011;2357;47.316;-1.348;2022-09-09T06:21:05;5.83;;;0.97;;
4686;SDS011;2357;47.316;-1.348;2022-09-09T06:23:33;4.33;;;2.07;;
4686;SDS011;2357;47.316;-1.348;2022-09-09T06:26:05;5.27;;;1.50;;
4686;SDS011;2357;47.316;-1.348;2022-09-09T06:28:31;7.50;;;1.67;;
4686;SDS011;2357;47.316;-1.348;2022-09-09T06:30:58;7.83;;;1.20;;
4686;SDS011;2357;47.316;-1.348;2022-09-09T06:33:33;4.23;;;0.90;;
4686;SDS011;2357;47.316;-1.348;2022-09-09T06:36:00;1.80;;;0.73;;
4686;SDS011;2357;47.316;-1.348;2022-09-09T06:38:27;5.60;;;1.27;;
4686;SDS011;2357;47.316;-1.348;2022-09-09T06:40:56;6.37;;;1.30;;
4686;SDS011;2357;47.316;-1.348;2022-09-09T06:43:26;3.17;;;1.00;;
4686;SDS011;2357;47.316;-1.348;2022-09-09T06:45:56;3.93;;;1.07;;
4686;SDS011;2357;47.316;-1.348;2022-09-09T06:48:23;5.97;;;0.90;;
4686;SDS011;2357;47.316;-1.348;2022-09-09T06:50:50;11.43;;;1.17;;
4686;SDS011;2357;47.316;-1.348;2022-09-09T06:53:25;3.80;;;1.20;;
4686;SDS011;2357;47.316;-1.348;2022-09-09T06:55:52;5.97;;;1.53;;
4686;SDS011;2357;47.316;-1.348;2022-09-09T06:58:17;10.47;;;1.57;;
4686;SDS011;2357;47.316;-1.348;2022-09-09T07:00:43;11.70;;;1.57;;
4686;SDS011;2357;47.316;-1.348;2022-09-09T07:03:09;8.57;;;1.80;;
4686;SDS011;2357;47.316;-1.348;2022-09-09T07:05:36;6.53;;;1.20;;
4686;SDS011;2357;47.316;-1.348;2022-09-09T07:08:02;11.17;;;1.90;;
4686;SDS011;2357;47.316;-1.348;2022-09-09T07:10:27;14.13;;;1.83;;
4686;SDS011;2357;47.316;-1.348;2022-09-09T07:12:53;5.37;;;1.30;;
4686;SDS011;2357;47.316;-1.348;2022-09-09T07:15:19;6.83;;;1.50;;
4686;SDS011;2357;47.316;-1.348;2022-09-09T07:17:46;9.83;;;1.47;;
4686;SDS011;2357;47.316;-1.348;2022-09-09T07:20:13;8.20;;;1.67;;
4686;SDS011;2357;47.316;-1.348;2022-09-09T07:22:39;5.40;;;1.10;;
4686;SDS011;2357;47.316;-1.348;2022-09-09T07:25:05;8.17;;;1.77;;
4686;SDS011;2357;47.316;-1.348;2022-09-09T07:27:32;8.37;;;1.87;;
4686;SDS011;2357;47.316;-1.348;2022-09-09T07:29:57;17.60;;;1.83;;
4686;SDS011;2357;47.316;-1.348;2022-09-09T07:32:23;6.70;;;1.63;;
4686;SDS011;2357;47.316;-1.348;2022-09-09T07:34:50;7.97;;;1.80;;
4686;SDS011;2357;47.316;-1.348;2022-09-09T07:37:16;13.20;;;3.20;;
4686;SDS011;2357;47.316;-1.348;2022-09-09T07:39:42;3.27;;;1.47;;
4686;SDS011;2357;47.316;-1.348;2022-09-09T07:42:08;12.43;;;2.00;;
4686;SDS011;2357;47.316;-1.348;2022-09-09T07:44:36;10.47;;;2.10;;
4686;SDS011;2357;47.316;-1.348;2022-09-09T07:47:04;8.73;;;1.70;;
4686;SDS011;2357;47.316;-1.348;2022-09-09T07:49:31;8.17;;;2.10;;
4686;SDS011;2357;47.316;-1.348;2022-09-09T07:51:57;9.57;;;1.80;;
4686;SDS011;2357;47.316;-1.348;2022-09-09T07:54:23;8.70;;;1.67;;
4686;SDS011;2357;47.316;-1.348;2022-09-09T07:56:49;13.83;;;2.17;;
4686;SDS011;2357;47.316;-1.348;2022-09-09T07:59:15;12.50;;;1.77;;
4686;SDS011;2357;47.316;-1.348;2022-09-09T08:01:45;5.13;;;1.43;;
4686;SDS011;2357;47.316;-1.348;2022-09-09T08:04:16;9.63;;;2.10;;
4686;SDS011;2357;47.316;-1.348;2022-09-09T08:06:44;19.70;;;2.20;;
4686;SDS011;2357;47.316;-1.348;2022-09-09T08:09:14;14.20;;;2.00;;
4686;SDS011;2357;47.316;-1.348;2022-09-09T08:11:41;6.47;;;2.23;;
4686;SDS011;2357;47.316;-1.348;2022-09-09T08:14:07;10.00;;;2.60;;
4686;SDS011;2357;47.316;-1.348;2022-09-09T08:16:35;5.00;;;1.40;;
4686;SDS011;2357;47.316;-1.348;2022-09-09T08:19:02;8.10;;;1.40;;
4686;SDS011;2357;47.316;-1.348;2022-09-09T08:21:29;3.90;;;1.17;;
4686;SDS011;2357;47.316;-1.348;2022-09-09T08:23:57;11.97;;;1.60;;
4686;SDS011;2357;47.316;-1.348;2022-09-09T08:26:27;16.03;;;1.80;;
4686;SDS011;2357;47.316;-1.348;2022-09-09T08:28:56;19.43;;;2.63;;
4686;SDS011;2357;47.316;-1.348;2022-09-09T08:31:33;13.97;;;1.97;;
4686;SDS011;2357;47.316;-1.348;2022-09-09T08:34:02;10.83;;;2.70;;
4686;SDS011;2357;47.316;-1.348;2022-09-09T08:36:30;15.50;;;3.17;;
4686;SDS011;2357;47.316;-1.348;2022-09-09T08:38:58;9.83;;;2.47;;
4686;SDS011;2357;47.316;-1.348;2022-09-09T08:52:19;14.60;;;1.27;;
4686;SDS011;2357;47.316;-1.348;2022-09-09T08:54:54;7.23;;;1.33;;
4686;SDS011;2357;47.316;-1.348;2022-09-09T08:57:28;12.87;;;2.40;;
4686;SDS011;2357;47.316;-1.348;2022-09-09T08:59:56;5.03;;;1.20;;
4686;SDS011;2357;47.316;-1.348;2022-09-09T09:02:47;14.03;;;1.77;;
4686;SDS011;2357;47.316;-1.348;2022-09-09T09:08:08;10.43;;;1.63;;
4686;SDS011;2357;47.316;-1.348;2022-09-09T09:10:56;5.90;;;0.90;;
4686;SDS011;2357;47.316;-1.348;2022-09-09T09:18:47;15.03;;;1.47;;
4686;SDS011;2357;47.316;-1.348;2022-09-09T09:23:45;11.13;;;1.90;;
4686;SDS011;2357;47.316;-1.348;2022-09-09T09:26:19;6.87;;;1.07;;
4686;SDS011;2357;47.316;-1.348;2022-09-09T09:28:47;6.70;;;1.37;;
4686;SDS011;2357;47.316;-1.348;2022-09-09T09:31:12;7.20;;;1.97;;
4686;SDS011;2357;47.316;-1.348;2022-09-09T09:36:11;10.20;;;1.33;;
4686;SDS011;2357;47.316;-1.348;2022-09-09T09:38:40;6.70;;;1.27;;
4686;SDS011;2357;47.316;-1.348;2022-09-09T09:41:29;8.87;;;1.10;;
4686;SDS011;2357;47.316;-1.348;2022-09-09T09:43:56;8.17;;;1.10;;
4686;SDS011;2357;47.316;-1.348;2022-09-09T09:46:24;6.13;;;1.27;;
4686;SDS011;2357;47.316;-1.348;2022-09-09T09:49:00;5.90;;;1.53;;
4686;SDS011;2357;47.316;-1.348;2022-09-09T09:51:30;9.07;;;1.73;;
4686;SDS011;2357;47.316;-1.348;2022-09-09T09:54:31;4.60;;;1.00;;
4686;SDS011;2357;47.316;-1.348;2022-09-09T09:56:56;7.37;;;1.67;;
4686;SDS011;2357;47.316;-1.348;2022-09-09T09:59:33;5.60;;;1.93;;
4686;SDS011;2357;47.316;-1.348;2022-09-09T10:02:36;5.03;;;1.00;;
4686;SDS011;2357;47.316;-1.348;2022-09-09T10:05:16;6.67;;;1.80;;
4686;SDS011;2357;47.316;-1.348;2022-09-09T10:13:34;17.40;;;1.53;;
4686;SDS011;2357;47.316;-1.348;2022-09-09T10:16:12;2.90;;;1.40;;
4686;SDS011;2357;47.316;-1.348;2022-09-09T10:24:25;8.93;;;1.57;;
4686;SDS011;2357;47.316;-1.348;2022-09-09T10:30:18;8.23;;;2.27;;
4686;SDS011;2357;47.316;-1.348;2022-09-09T10:35:35;17.20;;;2.83;;
4686;SDS011;2357;47.316;-1.348;2022-09-09T10:38:34;9.07;;;1.07;;
4686;SDS011;2357;47.316;-1.348;2022-09-09T10:49:32;5.53;;;1.10;;
4686;SDS011;2357;47.316;-1.348;2022-09-09T10:57:48;2.80;;;1.30;;
4686;SDS011;2357;47.316;-1.348;2022-09-09T11:00:21;10.70;;;1.17;;
4686;SDS011;2357;47.316;-1.348;2022-09-09T11:02:56;8.00;;;1.17;;
4686;SDS011;2357;47.316;-1.348;2022-09-09T11:05:30;9.60;;;1.67;;
4686;SDS011;2357;47.316;-1.348;2022-09-09T11:08:09;3.50;;;0.90;;
4686;SDS011;2357;47.316;-1.348;2022-09-09T11:13:25;8.07;;;1.27;;
4686;SDS011;2357;47.316;-1.348;2022-09-09T11:16:00;5.10;;;1.03;;
4686;SDS011;2357;47.316;-1.348;2022-09-09T11:18:36;9.60;;;1.77;;
4686;SDS011;2357;47.316;-1.348;2022-09-09T11:21:12;4.23;;;1.00;;
4686;SDS011;2357;47.316;-1.348;2022-09-09T11:23:49;7.73;;;1.30;;
4686;SDS011;2357;47.316;-1.348;2022-09-09T11:26:31;1.47;;;0.67;;
4686;SDS011;2357;47.316;-1.348;2022-09-09T11:32:32;4.43;;;1.70;;
4686;SDS011;2357;47.316;-1.348;2022-09-09T11:40:46;6.17;;;0.90;;
4686;SDS011;2357;47.316;-1.348;2022-09-09T11:43:23;10.80;;;1.10;;
4686;SDS011;2357;47.316;-1.348;2022-09-09T11:45:53;4.90;;;0.83;;
4686;SDS011;2357;47.316;-1.348;2022-09-09T11:48:26;10.10;;;1.20;;
4686;SDS011;2357;47.316;-1.348;2022-09-09T11:51:05;9.00;;;0.80;;
4686;SDS011;2357;47.316;-1.348;2022-09-09T11:59:38;4.23;;;0.83;;
4686;SDS011;2357;47.316;-1.348;2022-09-09T12:02:29;2.60;;;0.90;;
4686;SDS011;2357;47.316;-1.348;2022-09-09T12:07:49;3.53;;;0.80;;
4686;SDS011;2357;47.316;-1.348;2022-09-09T12:12:47;6.27;;;1.20;;
4686;SDS011;2357;47.316;-1.348;2022-09-09T12:15:23;1.80;;;0.70;;
4686;SDS011;2357;47.316;-1.348;2022-09-09T12:17:53;11.63;;;1.60;;
4686;SDS011;2357;47.316;-1.348;2022-09-09T12:20:26;5.07;;;1.20;;
4686;SDS011;2357;47.316;-1.348;2022-09-09T12:33:55;4.20;;;0.90;;
4686;SDS011;2357;47.316;-1.348;2022-09-09T12:37:05;12.43;;;2.00;;
4686;SDS011;2357;47.316;-1.348;2022-09-09T12:39:40;5.13;;;0.80;;
4686;SDS011;2357;47.316;-1.348;2022-09-09T12:42:19;2.20;;;0.80;;
4686;SDS011;2357;47.316;-1.348;2022-09-09T12:47:25;1.37;;;0.90;;
4686;SDS011;2357;47.316;-1.348;2022-09-09T12:49:56;4.30;;;1.00;;
4686;SDS011;2357;47.316;-1.348;2022-09-09T12:52:27;7.83;;;1.67;;
4686;SDS011;2357;47.316;-1.348;2022-09-09T12:54:57;1.67;;;0.90;;
4686;SDS011;2357;47.316;-1.348;2022-09-09T12:57:25;5.70;;;0.90;;
4686;SDS011;2357;47.316;-1.348;2022-09-09T13:00:03;3.40;;;1.10;;
4686;SDS011;2357;47.316;-1.348;2022-09-09T13:02:34;1.80;;;0.60;;
4686;SDS011;2357;47.316;-1.348;2022-09-09T13:05:13;4.30;;;1.23;;
4686;SDS011;2357;47.316;-1.348;2022-09-09T13:07:41;7.10;;;0.80;;
4686;SDS011;2357;47.316;-1.348;2022-09-09T13:10:10;4.30;;;1.03;;
4686;SDS011;2357;47.316;-1.348;2022-09-09T13:12:37;4.27;;;1.40;;
4686;SDS011;2357;47.316;-1.348;2022-09-09T13:15:03;4.20;;;0.70;;
4686;SDS011;2357;47.316;-1.348;2022-09-09T13:17:29;4.60;;;1.17;;
4686;SDS011;2357;47.316;-1.348;2022-09-09T13:19:54;1.37;;;1.13;;
4686;SDS011;2357;47.316;-1.348;2022-09-09T13:24:59;3.77;;;1.03;;
4686;SDS011;2357;47.316;-1.348;2022-09-09T13:27:34;2.70;;;0.60;;
4686;SDS011;2357;47.316;-1.348;2022-09-09T13:36:12;4.30;;;0.80;;
4686;SDS011;2357;47.316;-1.348;2022-09-09T13:38:32;7.27;;;0.70;;
4686;SDS011;2357;47.316;-1.348;2022-09-09T13:41:04;8.00;;;1.33;;
4686;SDS011;2357;47.316;-1.348;2022-09-09T13:43:34;12.60;;;0.90;;
4686;SDS011;2357;47.316;-1.348;2022-09-09T13:46:23;4.43;;;1.10;;
4686;SDS011;2357;47.316;-1.348;2022-09-09T13:48:59;3.00;;;0.93;;
4686;SDS011;2357;47.316;-1.348;2022-09-09T13:51:49;5.83;;;1.17;;
4686;SDS011;2357;47.316;-1.348;2022-09-09T13:54:18;4.10;;;1.20;;
4686;SDS011;2357;47.316;-1.348;2022-09-09T13:56:45;1.53;;;0.90;;
4686;SDS011;2357;47.316;-1.348;2022-09-09T13:59:14;3.30;;;0.80;;
4686;SDS011;2357;47.316;-1.348;2022-09-09T14:01:43;5.90;;;1.23;;
4686;SDS011;2357;47.316;-1.348;2022-09-09T14:04:09;15.80;;;1.00;;
4686;SDS011;2357;47.316;-1.348;2022-09-09T14:06:35;2.93;;;0.83;;
4686;SDS011;2357;47.316;-1.348;2022-09-09T14:09:04;4.70;;;1.07;;
4686;SDS011;2357;47.316;-1.348;2022-09-09T14:11:31;4.43;;;1.30;;
4686;SDS011;2357;47.316;-1.348;2022-09-09T14:13:56;8.37;;;0.93;;
4686;SDS011;2357;47.316;-1.348;2022-09-09T14:16:22;9.00;;;1.03;;
4686;SDS011;2357;47.316;-1.348;2022-09-09T14:18:48;8.97;;;0.77;;
4686;SDS011;2357;47.316;-1.348;2022-09-09T14:21:13;6.50;;;1.10;;
4686;SDS011;2357;47.316;-1.348;2022-09-09T14:23:40;8.10;;;1.03;;
4686;SDS011;2357;47.316;-1.348;2022-09-09T14:26:06;2.73;;;0.80;;
4686;SDS011;2357;47.316;-1.348;2022-09-09T14:28:33;4.10;;;0.80;;
4686;SDS011;2357;47.316;-1.348;2022-09-09T14:31:00;3.60;;;0.90;;
4686;SDS011;2357;47.316;-1.348;2022-09-09T14:33:27;5.70;;;1.00;;
4686;SDS011;2357;47.316;-1.348;2022-09-09T14:35:56;3.60;;;1.07;;
4686;SDS011;2357;47.316;-1.348;2022-09-09T14:38:24;2.50;;;1.23;;
4686;SDS011;2357;47.316;-1.348;2022-09-09T14:40:50;6.60;;;1.67;;
4686;SDS011;2357;47.316;-1.348;2022-09-09T14:43:15;6.80;;;1.10;;
4686;SDS011;2357;47.316;-1.348;2022-09-09T14:45:41;3.97;;;1.57;;
4686;SDS011;2357;47.316;-1.348;2022-09-09T14:48:08;6.47;;;1.17;;
4686;SDS011;2357;47.316;-1.348;2022-09-09T14:50:33;6.50;;;0.80;;
4686;SDS011;2357;47.316;-1.348;2022-09-09T14:53:01;4.70;;;1.53;;
4686;SDS011;2357;47.316;-1.348;2022-09-09T14:55:27;8.10;;;1.40;;
4686;SDS011;2357;47.316;-1.348;2022-09-09T14:57:54;6.97;;;1.53;;
4686;SDS011;2357;47.316;-1.348;2022-09-09T15:00:19;3.47;;;0.90;;
4686;SDS011;2357;47.316;-1.348;2022-09-09T15:02:45;5.10;;;1.23;;
4686;SDS011;2357;47.316;-1.348;2022-09-09T15:05:11;12.50;;;1.03;;
4686;SDS011;2357;47.316;-1.348;2022-09-09T15:07:36;4.40;;;0.87;;
4686;SDS011;2357;47.316;-1.348;2022-09-09T15:10:03;7.80;;;1.63;;
4686;SDS011;2357;47.316;-1.348;2022-09-09T15:12:29;0.50;;;0.50;;
4686;SDS011;2357;47.316;-1.348;2022-09-09T15:14:55;4.37;;;0.97;;
4686;SDS011;2357;47.316;-1.348;2022-09-09T15:17:20;1.30;;;0.80;;
4686;SDS011;2357;47.316;-1.348;2022-09-09T15:19:46;4.53;;;1.17;;
4686;SDS011;2357;47.316;-1.348;2022-09-09T15:22:12;2.90;;;0.93;;
4686;SDS011;2357;47.316;-1.348;2022-09-09T15:24:38;2.93;;;0.80;;
4686;SDS011;2357;47.316;-1.348;2022-09-09T15:27:04;1.80;;;1.00;;
4686;SDS011;2357;47.316;-1.348;2022-09-09T15:29:29;5.33;;;1.13;;
4686;SDS011;2357;47.316;-1.348;2022-09-09T15:31:55;2.03;;;0.60;;
4686;SDS011;2357;47.316;-1.348;2022-09-09T15:34:21;5.70;;;1.07;;
4686;SDS011;2357;47.316;-1.348;2022-09-09T15:36:47;8.53;;;1.40;;
4686;SDS011;2357;47.316;-1.348;2022-09-09T15:39:14;3.97;;;1.20;;
4686;SDS011;2357;47.316;-1.348;2022-09-09T15:41:41;3.27;;;0.90;;
4686;SDS011;2357;47.316;-1.348;2022-09-09T15:44:09;7.67;;;1.10;;
4686;SDS011;2357;47.316;-1.348;2022-09-09T15:46:38;6.67;;;1.30;;
4686;SDS011;2357;47.316;-1.348;2022-09-09T15:52:03;2.27;;;0.77;;
4686;SDS011;2357;47.316;-1.348;2022-09-09T15:54:30;7.10;;;0.70;;
4686;SDS011;2357;47.316;-1.348;2022-09-09T15:56:59;2.87;;;0.80;;
4686;SDS011;2357;47.316;-1.348;2022-09-09T15:59:27;5.83;;;1.23;;
4686;SDS011;2357;47.316;-1.348;2022-09-09T16:01:54;4.40;;;0.90;;
4686;SDS011;2357;47.316;-1.348;2022-09-09T16:04:21;3.70;;;0.83;;
4686;SDS011;2357;47.316;-1.348;2022-09-09T16:06:55;5.07;;;0.90;;
4686;SDS011;2357;47.316;-1.348;2022-09-09T16:09:26;4.90;;;1.30;;
4686;SDS011;2357;47.316;-1.348;2022-09-09T16:11:53;3.03;;;1.20;;
4686;SDS011;2357;47.316;-1.348;2022-09-09T16:14:21;5.23;;;0.80;;
4686;SDS011;2357;47.316;-1.348;2022-09-09T16:16:47;4.80;;;0.77;;
4686;SDS011;2357;47.316;-1.348;2022-09-09T16:19:13;4.87;;;1.50;;
4686;SDS011;2357;47.316;-1.348;2022-09-09T16:21:40;5.87;;;0.73;;
4686;SDS011;2357;47.316;-1.348;2022-09-09T16:24:11;5.20;;;1.13;;
4686;SDS011;2357;47.316;-1.348;2022-09-09T16:26:40;1.07;;;0.60;;
4686;SDS011;2357;47.316;-1.348;2022-09-09T16:29:09;4.67;;;1.03;;
4686;SDS011;2357;47.316;-1.348;2022-09-09T16:31:36;1.70;;;0.60;;
4686;SDS011;2357;47.316;-1.348;2022-09-09T16:34:01;3.50;;;0.93;;
4686;SDS011;2357;47.316;-1.348;2022-09-09T16:36:29;1.90;;;0.70;;
4686;SDS011;2357;47.316;-1.348;2022-09-09T16:38:56;5.57;;;1.23;;
4686;SDS011;2357;47.316;-1.348;2022-09-09T16:41:23;5.40;;;1.13;;
4686;SDS011;2357;47.316;-1.348;2022-09-09T16:43:57;6.33;;;0.83;;
4686;SDS011;2357;47.316;-1.348;2022-09-09T16:46:24;2.13;;;1.00;;
4686;SDS011;2357;47.316;-1.348;2022-09-09T16:48:52;5.07;;;1.10;;
4686;SDS011;2357;47.316;-1.348;2022-09-09T16:51:21;4.87;;;1.43;;
4686;SDS011;2357;47.316;-1.348;2022-09-09T16:53:49;5.10;;;1.17;;
4686;SDS011;2357;47.316;-1.348;2022-09-09T16:56:16;8.83;;;1.10;;
4686;SDS011;2357;47.316;-1.348;2022-09-09T16:58:44;5.67;;;1.37;;
4686;SDS011;2357;47.316;-1.348;2022-09-09T17:01:15;3.03;;;1.10;;
4686;SDS011;2357;47.316;-1.348;2022-09-09T17:03:40;12.50;;;1.43;;
4686;SDS011;2357;47.316;-1.348;2022-09-09T17:06:15;8.90;;;1.10;;
4686;SDS011;2357;47.316;-1.348;2022-09-09T17:08:41;4.07;;;0.97;;
4686;SDS011;2357;47.316;-1.348;2022-09-09T17:11:13;3.37;;;1.00;;
4686;SDS011;2357;47.316;-1.348;2022-09-09T17:13:41;3.53;;;0.80;;
4686;SDS011;2357;47.316;-1.348;2022-09-09T17:16:08;2.57;;;0.83;;
4686;SDS011;2357;47.316;-1.348;2022-09-09T17:18:35;7.83;;;0.87;;
4686;SDS011;2357;47.316;-1.348;2022-09-09T17:21:07;6.77;;;1.23;;
4686;SDS011;2357;47.316;-1.348;2022-09-09T17:23:39;2.30;;;0.93;;
4686;SDS011;2357;47.316;-1.348;2022-09-09T17:26:07;4.83;;;1.10;;
4686;SDS011;2357;47.316;-1.348;2022-09-09T17:28:34;2.20;;;0.87;;
4686;SDS011;2357;47.316;-1.348;2022-09-09T17:31:04;2.10;;;0.67;;
4686;SDS011;2357;47.316;-1.348;2022-09-09T17:33:34;6.43;;;1.20;;
4686;SDS011;2357;47.316;-1.348;2022-09-09T17:36:06;1.40;;;0.80;;
4686;SDS011;2357;47.316;-1.348;2022-09-09T17:38:36;3.63;;;0.70;;
4686;SDS011;2357;47.316;-1.348;2022-09-09T17:41:04;2.60;;;0.60;;
4686;SDS011;2357;47.316;-1.348;2022-09-09T17:43:32;4.83;;;0.70;;